Time;durP1;ratioP1;P1;durP2;ratioP2;P2;SDS_P1;SDS_P2;PMS_P1;PMS_P2;Temp;Humidity;BMP_temperature;BMP_pressure;BME280_temperature;BME280_humidity;BME280_pressure;Samples;Min_cycle;Max_cycle;Signal;HPM_P1;HPM_P2
2022/06/02 00:00:56;;;;;;;20.58;13.75;;;18.40;78.40;;;;;;5073958;28;20039;-13
2022/06/02 00:03:52;;;;;;;18.08;10.93;;;18.40;78.60;;;;;;5068018;28;20067;-12
2022/06/02 00:07:06;;;;;;;18.13;10.98;;;18.30;78.70;;;;;;5074795;28;20029;-11
2022/06/02 00:09:58;;;;;;;16.27;12.20;;;18.20;78.50;;;;;;5064332;28;20043;-13
2022/06/02 00:12:47;;;;;;;18.50;12.27;;;18.20;78.70;;;;;;5073434;28;20384;-12
2022/06/02 00:15:34;;;;;;;21.20;13.65;;;18.20;78.90;;;;;;5073926;28;20025;-13
2022/06/02 00:18:06;;;;;;;19.92;13.00;;;18.10;79.20;;;;;;5073550;28;20028;-11
2022/06/02 00:20:44;;;;;;;20.92;13.55;;;18.10;79.10;;;;;;5073688;28;20025;-12
2022/06/02 00:23:22;;;;;;;19.02;13.20;;;18.10;79.90;;;;;;5073791;28;20024;-11
2022/06/02 00:25:53;;;;;;;28.45;16.55;;;18.10;79.90;;;;;;5073493;28;20127;-12
2022/06/02 00:28:29;;;;;;;21.08;13.27;;;18.00;79.80;;;;;;5073129;28;20067;-11
2022/06/02 00:31:16;;;;;;;19.80;13.70;;;18.00;80.10;;;;;;5073751;28;20033;-12
2022/06/02 00:34:00;;;;;;;25.42;16.75;;;18.10;80.00;;;;;;5073203;28;20041;-12
2022/06/02 00:36:32;;;;;;;;;;;18.10;80.30;;;;;;5073565;28;20556;-12
2022/06/02 00:38:59;;;;;;;22.48;12.00;;;18.10;80.90;;;;;;5073284;28;19957;-12
2022/06/02 00:41:46;;;;;;;21.42;14.90;;;18.10;79.90;;;;;;5073494;28;20098;-11
2022/06/02 00:44:27;;;;;;;22.60;15.18;;;18.10;80.20;;;;;;5072237;28;20017;-11
2022/06/02 00:46:59;;;;;;;23.52;14.98;;;18.10;80.30;;;;;;5072916;28;20553;-12
2022/06/02 00:49:54;;;;;;;24.15;15.15;;;18.00;80.20;;;;;;5073482;28;20032;-11
2022/06/02 00:52:37;;;;;;;31.70;18.55;;;18.00;80.40;;;;;;5073042;28;20020;-11
2022/06/02 00:58:58;;;;;;;28.63;18.35;;;18.00;81.00;;;;;;5072626;28;20067;-11
2022/06/02 01:01:36;;;;;;;22.15;15.07;;;18.00;80.80;;;;;;5073485;28;20071;-13
2022/06/02 01:04:09;;;;;;;34.40;20.55;;;18.00;81.00;;;;;;5073321;28;20104;-13
2022/06/02 01:07:03;;;;;;;40.33;23.30;;;18.00;81.20;;;;;;5072891;28;20047;-12
2022/06/02 01:09:46;;;;;;;44.95;24.42;;;18.00;82.00;;;;;;5073006;28;20032;-13
2022/06/02 01:12:33;;;;;;;39.63;24.43;;;18.00;81.80;;;;;;5073014;28;20020;-12
2022/06/02 01:15:25;;;;;;;37.00;22.65;;;17.90;82.20;;;;;;5072894;28;20063;-11
2022/06/02 01:18:27;;;;;;;24.85;17.65;;;17.90;82.70;;;;;;5070900;28;20032;-12
2022/06/02 01:20:59;;;;;;;31.80;21.77;;;17.90;82.30;;;;;;5073688;28;20040;-11
2022/06/02 01:23:43;;;;;;;28.73;20.35;;;17.90;82.50;;;;;;5072765;28;20024;-12
2022/06/02 01:26:21;;;;;;;27.95;17.27;;;17.90;82.80;;;;;;5073014;28;20119;-11
2022/06/02 01:29:04;;;;;;;28.63;18.25;;;17.90;82.30;;;;;;5072604;28;20074;-12
2022/06/02 01:31:43;;;;;;;;;;;17.90;82.60;;;;;;5073155;28;20040;-12
2022/06/02 01:34:15;;;;;;;26.08;16.08;;;17.90;82.40;;;;;;5073293;28;19911;-13
2022/06/02 01:37:15;;;;;;;31.55;19.38;;;17.90;82.10;;;;;;5072627;28;20392;-12
2022/06/02 01:40:01;;;;;;;27.60;17.92;;;17.90;82.50;;;;;;5072663;28;20396;-11
2022/06/02 01:42:36;;;;;;;35.17;21.42;;;17.90;82.90;;;;;;5072625;28;20082;-12
2022/06/02 01:45:22;;;;;;;33.72;20.23;;;17.90;84.00;;;;;;5073023;28;20099;-12
2022/06/02 01:48:04;;;;;;;30.63;18.33;;;17.90;83.70;;;;;;5075927;28;20047;-13
2022/06/02 01:50:44;;;;;;;29.48;20.23;;;17.90;83.20;;;;;;5076219;28;20103;-12
2022/06/02 01:53:25;;;;;;;26.15;17.15;;;17.90;83.80;;;;;;5076620;28;20029;-11
2022/06/02 01:56:16;;;;;;;28.50;19.42;;;17.90;83.20;;;;;;5076605;28;20032;-11
2022/06/02 01:58:47;;;;;;;31.55;20.08;;;17.90;83.00;;;;;;5076244;28;20031;-11
2022/06/02 02:01:19;;;;;;;29.30;18.80;;;17.90;83.70;;;;;;5076103;28;20491;-12
2022/06/02 02:03:55;;;;;;;25.85;17.98;;;17.90;83.20;;;;;;5074891;28;20073;-12
2022/06/02 02:07:00;;;;;;;32.25;20.33;;;17.90;83.00;;;;;;5076150;28;20029;-11
2022/06/02 02:09:54;;;;;;;28.65;17.85;;;17.90;83.30;;;;;;5076572;28;20028;-13
2022/06/02 02:12:39;;;;;;;33.13;21.45;;;17.90;83.50;;;;;;5076047;28;20048;-10
2022/06/02 02:15:18;;;;;;;30.35;19.58;;;17.90;84.40;;;;;;5075943;28;20020;-13
2022/06/02 02:18:02;;;;;;;31.23;20.83;;;17.90;84.70;;;;;;5076150;28;20036;-11
2022/06/02 02:20:49;;;;;;;34.33;21.38;;;17.90;84.80;;;;;;5075692;28;20047;-12
2022/06/02 02:23:37;;;;;;;45.80;26.60;;;17.90;85.10;;;;;;5076078;28;20108;-11
2022/06/02 02:26:18;;;;;;;38.92;22.10;;;17.90;84.90;;;;;;5075776;28;20431;-11
2022/06/02 02:28:55;;;;;;;29.75;20.02;;;17.90;85.20;;;;;;5074334;28;20032;-12
2022/06/02 02:31:41;;;;;;;33.72;22.75;;;17.90;84.60;;;;;;5075836;28;20021;-12
2022/06/02 02:34:35;;;;;;;33.97;22.17;;;17.90;86.00;;;;;;5075328;28;20041;-11
2022/06/02 02:37:14;;;;;;;42.08;24.17;;;17.90;85.70;;;;;;5075493;28;20366;-12
2022/06/02 02:39:52;;;;;;;45.90;26.13;;;17.90;86.00;;;;;;5075803;28;20024;-12
2022/06/02 02:42:41;;;;;;;38.40;25.17;;;17.90;85.90;;;;;;5075356;28;20025;-12
2022/06/02 02:45:30;;;;;;;39.65;23.38;;;17.90;86.20;;;;;;5075709;28;20053;-12
2022/06/02 02:48:36;;;;;;;39.55;24.23;;;17.90;86.10;;;;;;5075233;28;20084;-11
2022/06/02 02:51:08;;;;;;;40.00;24.60;;;17.90;86.30;;;;;;5075127;28;20043;-12
2022/06/02 02:53:36;;;;;;;36.95;24.23;;;17.90;86.90;;;;;;5074144;28;20066;-12
2022/06/02 02:56:14;;;;;;;37.75;23.88;;;17.90;86.70;;;;;;5075200;28;20090;-13
2022/06/02 02:58:55;;;;;;;43.22;25.75;;;17.90;87.10;;;;;;5075329;28;20021;-11
2022/06/02 03:01:35;;;;;;;42.47;24.75;;;17.90;87.00;;;;;;5075403;28;20028;-12
2022/06/02 03:04:42;;;;;;;40.88;24.40;;;17.90;87.00;;;;;;5075215;28;20435;-11
2022/06/02 03:07:07;;;;;;;50.58;28.20;;;18.00;88.60;;;;;;5075199;28;20021;-12
2022/06/02 03:09:56;;;;;;;55.75;30.38;;;18.00;90.00;;;;;;5075125;28;20103;-12
2022/06/02 03:12:22;;;;;;;72.55;33.92;;;18.10;90.00;;;;;;5075238;28;20052;-13
2022/06/02 03:15:19;;;;;;;55.67;29.63;;;18.10;90.50;;;;;;5074833;28;20039;-12
2022/06/02 03:18:00;;;;;;;69.20;32.95;;;18.20;90.60;;;;;;5074836;28;20488;-13
2022/06/02 03:20:47;;;;;;;87.60;34.33;;;18.30;91.30;;;;;;5074475;28;20538;-12
2022/06/02 03:23:37;;;;;;;103.80;35.22;;;18.30;91.60;;;;;;5075050;28;20021;-13
2022/06/02 03:26:10;;;;;;;107.55;35.08;;;18.40;91.60;;;;;;5074567;28;20082;-13
2022/06/02 03:28:51;;;;;;;159.98;41.35;;;18.40;91.70;;;;;;5074510;28;20060;-11
2022/06/02 03:31:37;;;;;;;80.63;30.30;;;18.40;91.80;;;;;;5074812;28;20056;-12
2022/06/02 03:34:28;;;;;;;190.25;43.60;;;18.40;91.60;;;;;;5067058;28;20071;-12
2022/06/02 03:36:54;;;;;;;98.95;32.97;;;18.50;91.70;;;;;;5074221;28;20059;-12
2022/06/02 03:39:41;;;;;;;169.23;40.10;;;18.50;91.80;;;;;;5074200;28;20029;-11
2022/06/02 03:42:31;;;;;;;106.32;33.50;;;18.60;92.00;;;;;;5074197;28;20545;-12
2022/06/02 03:45:29;;;;;;;82.15;32.15;;;18.60;91.80;;;;;;5074836;28;20070;-12
2022/06/02 03:48:08;;;;;;;76.70;30.58;;;18.70;91.90;;;;;;5073826;28;20496;-12
2022/06/02 03:50:52;;;;;;;115.75;36.17;;;18.70;91.80;;;;;;5073895;28;20028;-13
2022/06/02 03:53:37;;;;;;;61.30;25.30;;;18.70;91.20;;;;;;5074360;28;20035;-13
2022/06/02 03:56:03;;;;;;;79.72;31.77;;;18.80;90.60;;;;;;5073943;28;20396;-13
2022/06/02 03:58:38;;;;;;;94.40;35.97;;;18.90;90.30;;;;;;5073641;28;20481;-14
2022/06/02 04:01:11;;;;;;;77.03;30.38;;;18.90;90.30;;;;;;5074106;28;20025;-13
2022/06/02 04:03:43;;;;;;;69.90;28.70;;;18.90;90.00;;;;;;5073899;28;20017;-13
2022/06/02 04:06:46;;;;;;;65.60;27.77;;;18.90;89.50;;;;;;5073710;28;20170;-12
2022/06/02 04:09:29;;;;;;;54.22;25.05;;;19.00;89.20;;;;;;5073109;28;20055;-12
2022/06/02 04:15:36;;;;;;;38.78;20.05;;;19.20;88.60;;;;;;5073962;28;20031;-13
2022/06/02 04:18:13;;;;;;;41.30;20.85;;;19.20;88.50;;;;;;5073626;28;20089;-13
2022/06/02 04:20:41;;;;;;;57.95;26.88;;;19.30;88.30;;;;;;5074187;28;20023;-13
2022/06/02 04:23:16;;;;;;;69.75;32.33;;;19.40;88.20;;;;;;5073786;28;20040;-13
2022/06/02 04:25:54;;;;;;;54.55;26.27;;;19.40;88.30;;;;;;5073808;28;20021;-12
2022/06/02 04:28:31;;;;;;;59.40;27.38;;;19.50;88.30;;;;;;5073122;28;20044;-12
2022/06/02 04:31:06;;;;;;;45.70;24.25;;;19.50;88.60;;;;;;5072983;28;20032;-13
2022/06/02 04:33:51;;;;;;;64.57;31.42;;;19.60;88.70;;;;;;5073333;28;20595;-12
2022/06/02 04:36:38;;;;;;;56.85;30.50;;;19.70;88.40;;;;;;5073545;28;20095;-13
2022/06/02 04:39:25;;;;;;;71.82;33.50;;;19.80;89.20;;;;;;5073473;28;20028;-13
2022/06/02 04:42:20;;;;;;;51.10;26.80;;;19.80;89.50;;;;;;5073229;28;20047;-14
2022/06/02 04:45:05;;;;;;;59.78;29.60;;;19.80;88.70;;;;;;5067612;28;20123;-13
2022/06/02 04:47:49;;;;;;;59.53;29.60;;;19.90;88.40;;;;;;5072911;28;20106;-12
2022/06/02 04:50:39;;;;;;;68.57;34.10;;;19.90;88.60;;;;;;5072968;28;20027;-14
2022/06/02 04:53:27;;;;;;;48.58;24.45;;;20.00;88.30;;;;;;5073981;28;20082;-13
2022/06/02 04:56:32;;;;;;;51.78;26.10;;;20.00;87.60;;;;;;5073398;28;20029;-13
2022/06/02 04:59:18;;;;;;;54.63;30.20;;;20.10;87.90;;;;;;5073207;28;20020;-12
2022/06/02 05:01:55;;;;;;;46.60;25.75;;;20.20;88.20;;;;;;5073083;28;20024;-12
2022/06/02 05:04:42;;;;;;;65.03;31.50;;;20.30;87.20;;;;;;5073022;28;20024;-14
2022/06/02 05:07:30;;;;;;;70.88;33.80;;;20.40;87.80;;;;;;5072929;28;20381;-13
2022/06/02 05:10:06;;;;;;;53.38;30.52;;;20.40;88.20;;;;;;5072944;28;20028;-14
2022/06/02 05:12:55;;;;;;;54.80;29.35;;;20.40;87.80;;;;;;5072740;28;20468;-13
2022/06/02 05:15:24;;;;;;;55.78;28.92;;;20.50;87.80;;;;;;5073189;28;20028;-12
2022/06/02 05:18:06;;;;;;;54.17;29.35;;;20.50;87.60;;;;;;5072900;28;20029;-12
2022/06/02 05:20:49;;;;;;;53.50;29.00;;;20.60;87.40;;;;;;5075120;28;20083;-13
2022/06/02 05:23:30;;;;;;;66.13;32.58;;;20.60;87.40;;;;;;5076946;28;20048;-12
2022/06/02 05:26:12;;;;;;;58.53;31.58;;;20.70;87.50;;;;;;5076802;28;20025;-11
2022/06/02 05:28:46;;;;;;;61.42;32.03;;;20.70;87.30;;;;;;5076457;28;20033;-12
2022/06/02 05:31:45;;;;;;;58.40;29.42;;;20.80;87.20;;;;;;5076759;28;20027;-12
2022/06/02 05:34:29;;;;;;;48.45;26.95;;;20.90;87.20;;;;;;5076713;28;20028;-11
2022/06/02 05:37:14;;;;;;;50.90;27.02;;;20.90;86.80;;;;;;5076664;28;20031;-13
2022/06/02 05:39:59;;;;;;;48.58;27.00;;;21.00;86.50;;;;;;5076548;28;20120;-13
2022/06/02 05:42:59;;;;;;;41.25;24.73;;;21.20;86.50;;;;;;5076553;28;20025;-12
2022/06/02 05:45:49;;;;;;;45.55;24.70;;;21.30;86.40;;;;;;5076517;28;20032;-12
2022/06/02 05:48:21;;;;;;;55.47;31.88;;;21.40;85.60;;;;;;5076014;28;20048;-12
2022/06/02 05:51:00;;;;;;;54.03;29.17;;;21.50;85.50;;;;;;5076387;28;20033;-12
2022/06/02 05:53:32;;;;;;;51.33;27.77;;;21.50;85.10;;;;;;5076492;28;20031;-13
2022/06/02 05:56:07;;;;;;;46.35;27.80;;;21.60;84.60;;;;;;5076573;28;20147;-12
2022/06/02 05:58:45;;;;;;;43.13;25.83;;;21.70;84.30;;;;;;5075808;28;20046;-12
2022/06/02 06:01:28;;;;;;;45.42;25.83;;;21.70;84.30;;;;;;5076220;28;20040;-12
2022/06/02 06:04:03;;;;;;;42.80;26.75;;;21.90;84.10;;;;;;5076202;28;20111;-12
2022/06/02 06:06:33;;;;;;;47.33;27.27;;;21.90;83.80;;;;;;5075945;28;20276;-12
2022/06/02 06:09:23;;;;;;;41.83;22.80;;;21.90;83.50;;;;;;5076229;28;20036;-12
2022/06/02 06:12:14;;;;;;;44.90;24.63;;;21.90;83.30;;;;;;5076647;28;20115;-12
2022/06/02 06:14:59;;;;;;;54.22;28.63;;;22.20;83.40;;;;;;5076105;28;20037;-13
2022/06/02 06:17:49;;;;;;;46.13;25.23;;;22.30;82.80;;;;;;5076274;28;20044;-12
2022/06/02 06:20:39;;;;;;;40.40;23.73;;;22.40;82.20;;;;;;5075663;28;20063;-12
2022/06/02 06:23:35;;;;;;;51.53;28.17;;;22.50;82.00;;;;;;5076422;28;20024;-14
2022/06/02 06:26:45;;;;;;;49.30;28.42;;;22.60;81.30;;;;;;5075777;28;20082;-12
2022/06/02 06:29:19;;;;;;;42.72;25.60;;;22.60;81.30;;;;;;5033352;28;20045;-13
2022/06/02 06:32:03;;;;;;;41.72;24.75;;;22.70;80.80;;;;;;5032762;28;20048;-12
2022/06/02 06:34:38;;;;;;;35.70;22.45;;;22.70;81.00;;;;;;5033453;28;20025;-13
2022/06/02 06:37:28;;;;;;;39.45;22.42;;;22.70;80.90;;;;;;5033838;28;20026;-11
2022/06/02 06:40:20;;;;;;;34.47;21.88;;;22.80;80.60;;;;;;5033624;28;20033;-12
2022/06/02 06:43:14;;;;;;;39.92;23.52;;;22.90;80.30;;;;;;5034001;28;20026;-12
2022/06/02 06:45:43;;;;;;;34.88;20.77;;;22.90;80.10;;;;;;5031865;28;20539;-12
2022/06/02 06:48:23;;;;;;;40.78;24.00;;;22.90;79.90;;;;;;5033172;28;20564;-11
2022/06/02 06:50:58;;;;;;;35.75;20.13;;;22.90;79.70;;;;;;5033303;28;20037;-12
2022/06/02 06:53:48;;;;;;;36.72;22.95;;;22.90;79.80;;;;;;5017417;28;20525;-11
2022/06/02 06:56:24;;;;;;;37.55;22.60;;;22.90;79.20;;;;;;5033662;28;20040;-11
2022/06/02 06:59:15;;;;;;;31.38;21.05;;;23.00;78.70;;;;;;5033037;28;20048;-12
2022/06/02 07:01:53;;;;;;;36.90;22.83;;;23.10;78.90;;;;;;5033018;28;20061;-11
2022/06/02 07:04:55;;;;;;;37.05;22.67;;;23.10;78.80;;;;;;5016249;28;20437;-12
2022/06/02 07:07:46;;;;;;;41.85;21.27;;;23.10;78.30;;;;;;5074848;28;20068;-12
2022/06/02 07:10:21;;;;;;;36.65;22.65;;;23.20;78.60;;;;;;5074943;28;20050;-12
2022/06/02 07:13:08;;;;;;;36.53;22.88;;;23.40;78.20;;;;;;5075015;28;20024;-12
2022/06/02 07:15:57;;;;;;;33.65;19.55;;;23.50;77.10;;;;;;5074861;28;20464;-12
2022/06/02 07:18:23;;;;;;;37.22;22.20;;;23.60;77.10;;;;;;5074828;28;20024;-13
2022/06/02 07:21:16;;;;;;;36.00;21.30;;;23.90;76.00;;;;;;5074663;28;20098;-13
2022/06/02 07:24:06;;;;;;;37.97;20.92;;;24.10;75.40;;;;;;5074950;28;20146;-11
2022/06/02 07:26:41;;;;;;;36.28;20.55;;;24.20;74.40;;;;;;5074967;28;20028;-12
2022/06/02 07:29:23;;;;;;;24.10;16.30;;;24.30;73.80;;;;;;5074724;28;20044;-12
2022/06/02 07:31:52;;;;;;;22.65;15.52;;;24.30;74.10;;;;;;5074491;28;20027;-11
2022/06/02 07:35:02;;;;;;;29.27;18.55;;;24.40;74.30;;;;;;5074475;28;20033;-11
2022/06/02 07:37:31;;;;;;;31.48;19.13;;;24.50;73.70;;;;;;5074388;28;20036;-12
2022/06/02 07:40:08;;;;;;;32.85;20.85;;;24.60;73.60;;;;;;5074798;28;20035;-12
2022/06/02 07:43:05;;;;;;;36.97;20.35;;;24.70;72.80;;;;;;5073936;28;20082;-13
2022/06/02 07:45:46;;;;;;;30.55;17.83;;;24.70;72.60;;;;;;5074438;28;20423;-12
2022/06/02 07:48:38;;;;;;;25.85;16.75;;;24.90;71.80;;;;;;5074285;28;20090;-12
2022/06/02 07:51:13;;;;;;;25.93;17.83;;;25.10;72.30;;;;;;5074058;28;20043;-12
2022/06/02 07:54:19;;;;;;;33.50;18.95;;;25.40;71.00;;;;;;5074031;28;20028;-12
2022/06/02 07:56:54;;;;;;;27.17;17.85;;;25.70;70.20;;;;;;5074010;28;20054;-12
2022/06/02 07:59:20;;;;;;;32.50;20.20;;;25.90;69.70;;;;;;5073917;28;20036;-12
2022/06/02 08:02:22;;;;;;;29.30;16.55;;;25.90;69.30;;;;;;5074170;28;20033;-13
2022/06/02 08:05:08;;;;;;;26.33;16.35;;;26.00;68.90;;;;;;5073822;28;20054;-12
2022/06/02 08:07:59;;;;;;;30.15;19.17;;;26.40;68.10;;;;;;5074050;28;20032;-12
2022/06/02 08:10:40;;;;;;;31.63;18.60;;;26.70;67.00;;;;;;5073445;28;20077;-11
2022/06/02 08:13:14;;;;;;;23.30;14.50;;;27.00;66.40;;;;;;5073950;28;20107;-11
2022/06/02 08:16:28;;;;;;;23.48;14.93;;;27.00;66.60;;;;;;5073915;28;20132;-12
2022/06/02 08:19:28;;;;;;;28.15;17.63;;;27.10;66.00;;;;;;5031928;28;20057;-11
2022/06/02 08:21:59;;;;;;;24.75;17.33;;;27.20;65.30;;;;;;5000545;28;20037;-13
2022/06/02 08:24:38;;;;;;;30.10;19.80;;;27.30;64.50;;;;;;5031370;28;20026;-11
2022/06/02 08:27:30;;;;;;;33.95;19.55;;;27.30;64.10;;;;;;5031798;28;20470;-11
2022/06/02 08:30:21;;;;;;;25.48;15.35;;;27.30;63.80;;;;;;5032315;28;20229;-12
2022/06/02 08:33:05;;;;;;;27.92;16.88;;;27.40;64.80;;;;;;5032354;28;20030;-11
2022/06/02 08:36:01;;;;;;;38.88;20.48;;;27.60;63.60;;;;;;5031400;28;20513;-12
2022/06/02 08:39:05;;;;;;;23.35;15.65;;;27.60;64.00;;;;;;5023305;28;20102;-12
2022/06/02 08:42:17;;;;;;;24.75;15.35;;;27.60;63.80;;;;;;5031620;28;20029;-12
2022/06/02 08:45:07;;;;;;;32.60;18.00;;;27.70;63.80;;;;;;4972287;28;20033;-12
2022/06/02 08:47:47;;;;;;;29.95;17.80;;;27.80;62.30;;;;;;5028615;28;20560;-13
2022/06/02 08:50:47;;;;;;;30.85;18.98;;;27.90;62.70;;;;;;5031064;28;20056;-17
2022/06/02 08:53:52;;;;;;;27.73;17.63;;;28.00;62.80;;;;;;5031193;28;20032;-11
2022/06/02 08:56:50;;;;;;;28.00;17.27;;;28.30;61.30;;;;;;5068717;28;20078;-13
2022/06/02 08:59:42;;;;;;;26.17;18.08;;;28.60;62.00;;;;;;5036809;28;20110;-12
2022/06/02 09:02:38;;;;;;;30.00;19.30;;;28.90;59.90;;;;;;5073252;28;20427;-13
2022/06/02 09:05:28;;;;;;;29.33;17.02;;;29.10;60.00;;;;;;5073356;28;20060;-12
2022/06/02 09:08:09;;;;;;;32.60;20.48;;;29.50;60.30;;;;;;5072861;28;20036;-13
2022/06/02 09:10:35;;;;;;;27.65;18.40;;;29.70;57.80;;;;;;5072765;28;20025;-12
2022/06/02 09:13:28;;;;;;;26.80;16.88;;;29.90;58.00;;;;;;5072860;28;20032;-13
2022/06/02 09:16:32;;;;;;;19.10;13.55;;;30.20;57.50;;;;;;5072929;28;20115;-13
2022/06/02 09:19:17;;;;;;;;;;;30.60;56.90;;;;;;5074034;28;20056;-13
2022/06/02 09:21:58;;;;;;;27.23;17.33;;;31.10;57.00;;;;;;5072817;28;20356;-12
2022/06/02 09:24:47;;;;;;;22.55;15.65;;;31.30;55.40;;;;;;5072886;28;20029;-13
2022/06/02 09:27:16;;;;;;;28.90;19.02;;;31.30;53.20;;;;;;5073018;28;20021;-12
2022/06/02 09:30:00;;;;;;;27.38;18.02;;;30.90;54.50;;;;;;5072692;28;20036;-14
2022/06/02 09:33:33;;;;;;;24.75;17.25;;;30.70;54.20;;;;;;5072829;28;20029;-12
2022/06/02 09:36:16;;;;;;;20.60;13.60;;;30.40;54.60;;;;;;5072666;28;20025;-12
2022/06/02 09:39:15;;;;;;;22.83;12.85;;;30.40;56.40;;;;;;5073046;28;20033;-12
2022/06/02 09:42:03;;;;;;;25.25;18.25;;;30.60;56.00;;;;;;5072954;28;20437;-12
2022/06/02 09:44:52;;;;;;;19.17;12.82;;;30.60;54.70;;;;;;5072703;28;20051;-12
2022/06/02 09:47:43;;;;;;;20.52;13.05;;;30.60;53.70;;;;;;5072797;28;20059;-12
2022/06/02 09:50:37;;;;;;;20.20;16.08;;;30.60;55.50;;;;;;5066980;28;20032;-13
2022/06/02 09:53:15;;;;;;;21.48;14.15;;;30.60;54.80;;;;;;5072876;28;20083;-12
2022/06/02 09:55:46;;;;;;;20.80;14.13;;;30.40;56.20;;;;;;5073196;28;20029;-13
2022/06/02 09:58:31;;;;;;;21.55;14.23;;;30.40;56.30;;;;;;5072433;28;20017;-13
2022/06/02 10:01:24;;;;;;;20.33;13.35;;;30.30;56.40;;;;;;5072474;28;20032;-12
2022/06/02 10:04:31;;;;;;;21.17;14.98;;;30.50;55.80;;;;;;5072674;28;20021;-12
2022/06/02 10:07:11;;;;;;;27.58;17.83;;;31.00;53.30;;;;;;5073851;28;20064;-13
2022/06/02 10:09:58;;;;;;;22.08;12.40;;;31.60;53.10;;;;;;5076376;28;20119;-12
2022/06/02 10:13:01;;;;;;;21.90;14.90;;;31.90;53.00;;;;;;5075738;28;20510;-12
2022/06/02 10:15:58;;;;;;;16.08;10.80;;;32.30;52.00;;;;;;5076227;28;20057;-12
2022/06/02 10:19:00;;;;;;;23.85;14.93;;;32.60;51.70;;;;;;5075678;28;20040;-13
2022/06/02 10:21:44;;;;;;;20.65;14.05;;;33.10;49.40;;;;;;5076102;28;20028;-12
2022/06/02 10:24:10;;;;;;;29.70;16.15;;;33.40;49.80;;;;;;5076126;28;20029;-11
2022/06/02 10:27:03;;;;;;;24.90;14.52;;;33.50;47.10;;;;;;5076122;28;20024;-13
2022/06/02 10:29:29;;;;;;;;;;;33.70;46.30;;;;;;5074829;28;20503;-12
2022/06/02 10:32:25;;;;;;;19.88;12.07;;;33.70;46.90;;;;;;5075663;28;20408;-12
2022/06/02 10:35:21;;;;;;;23.25;14.43;;;33.90;48.10;;;;;;5075842;28;20063;-12
2022/06/02 10:38:00;;;;;;;19.15;11.57;;;34.00;48.30;;;;;;5075463;28;20444;-13
2022/06/02 10:40:35;;;;;;;20.27;12.60;;;34.20;47.80;;;;;;5075564;28;20029;-12
2022/06/02 10:43:26;;;;;;;17.85;11.65;;;34.50;47.00;;;;;;5075682;28;20028;-12
2022/06/02 10:46:11;;;;;;;14.75;10.95;;;34.90;44.90;;;;;;5075720;28;20028;-12
2022/06/02 10:49:02;;;;;;;16.85;11.27;;;35.30;46.20;;;;;;5075111;28;20044;-12
2022/06/02 10:51:53;;;;;;;17.42;10.52;;;35.40;44.50;;;;;;5075666;28;20025;-12
2022/06/02 10:54:54;;;;;;;19.05;11.38;;;35.90;43.80;;;;;;5075208;28;20021;-12
2022/06/02 10:58:07;;;;;;;13.70;10.07;;;36.30;42.80;;;;;;5067712;28;20029;-13
2022/06/02 11:00:48;;;;;;;15.77;10.10;;;36.60;43.80;;;;;;5033586;28;20128;-13
2022/06/02 11:03:32;;;;;;;15.00;10.13;;;37.20;43.60;;;;;;5033118;28;20036;-11
2022/06/02 11:06:49;;;;;;;13.85;10.38;;;37.20;41.60;;;;;;5062465;28;20028;-12
2022/06/02 11:09:57;;;;;;;14.45;10.50;;;37.00;41.50;;;;;;5074935;28;20032;-12
2022/06/02 11:12:42;;;;;;;14.02;9.70;;;36.90;41.60;;;;;;5074822;28;20029;-13
2022/06/02 11:15:26;;;;;;;16.13;11.32;;;37.00;41.20;;;;;;5074843;28;20488;-12
2022/06/02 11:18:26;;;;;;;15.35;10.40;;;36.90;40.20;;;;;;5074606;28;20028;-11
2022/06/02 11:21:32;;;;;;;17.05;9.60;;;36.90;39.80;;;;;;5075099;28;20013;-13
2022/06/02 11:24:24;;;;;;;13.63;10.95;;;36.40;41.30;;;;;;5062958;28;20028;-12
2022/06/02 11:27:27;;;;;;;13.68;9.13;;;35.90;42.30;;;;;;5074980;28;20052;-12
2022/06/02 11:30:17;;;;;;;13.80;8.05;;;35.70;42.40;;;;;;5074299;28;20480;-12
2022/06/02 11:33:13;;;;;;;12.82;7.30;;;36.00;42.50;;;;;;5074836;28;20126;-11
2022/06/02 11:36:10;;;;;;;18.15;10.77;;;36.40;41.90;;;;;;5074735;28;20029;-11
2022/06/02 11:38:53;;;;;;;15.18;9.63;;;36.40;41.70;;;;;;5074144;28;20473;-12
2022/06/02 11:41:25;;;;;;;14.43;8.98;;;36.00;42.00;;;;;;5075144;28;20054;-12
2022/06/02 11:44:09;;;;;;;14.15;9.27;;;35.70;43.40;;;;;;5074165;28;20035;-12
2022/06/02 11:46:34;;;;;;;14.90;8.80;;;35.90;43.10;;;;;;5073805;28;20067;-12
2022/06/02 11:49:18;;;;;;;12.07;8.32;;;36.40;42.90;;;;;;5074021;28;20040;-12
2022/06/02 11:52:14;;;;;;;13.50;7.97;;;37.10;38.90;;;;;;5074394;28;20025;-12
2022/06/02 11:54:56;;;;;;;9.85;7.20;;;37.70;38.50;;;;;;5074009;28;20056;-13
2022/06/02 11:57:50;;;;;;;12.25;8.25;;;38.40;37.20;;;;;;5074356;28;20086;-12
2022/06/02 12:00:36;;;;;;;12.10;7.82;;;38.80;36.70;;;;;;5073753;28;20052;-12
2022/06/02 12:03:37;;;;;;;11.07;7.65;;;39.20;36.80;;;;;;5052613;28;20104;-12
2022/06/02 12:06:45;;;;;;;12.88;7.55;;;39.60;36.60;;;;;;5073843;28;20021;-12
2022/06/02 12:09:25;;;;;;;11.75;7.38;;;39.60;35.90;;;;;;5073921;28;20102;-12
2022/06/02 12:11:54;;;;;;;13.93;8.60;;;39.10;36.50;;;;;;5074046;28;20031;-11
2022/06/02 12:14:34;;;;;;;11.30;7.20;;;38.50;36.90;;;;;;5073435;28;20047;-12
2022/06/02 12:17:19;;;;;;;12.25;8.13;;;38.20;38.00;;;;;;5073910;28;20020;-12
2022/06/02 12:20:33;;;;;;;17.83;9.98;;;38.40;38.30;;;;;;5073934;28;20062;-12
2022/06/02 12:23:18;;;;;;;12.65;8.20;;;38.50;37.80;;;;;;5036667;28;20030;-13
2022/06/02 12:25:59;;;;;;;16.80;9.38;;;38.40;38.00;;;;;;5073503;28;20039;-14
2022/06/02 12:29:00;;;;;;;13.02;8.57;;;38.60;37.90;;;;;;5073224;28;20029;-12
2022/06/02 12:31:37;;;;;;;13.48;7.70;;;38.40;38.70;;;;;;5036149;28;20033;-12
2022/06/02 12:34:35;;;;;;;14.70;8.15;;;38.50;38.50;;;;;;5073431;28;20031;-12
2022/06/02 12:37:35;;;;;;;14.07;8.90;;;38.90;38.10;;;;;;5037552;28;20037;-12
2022/06/02 12:40:18;;;;;;;14.38;8.63;;;39.10;37.00;;;;;;5073600;28;20037;-13
2022/06/02 12:43:18;;;;;;;12.60;8.38;;;38.90;37.20;;;;;;5073244;28;20059;-11
2022/06/02 12:45:55;;;;;;;14.52;8.35;;;38.70;38.10;;;;;;5073268;28;20032;-13
2022/06/02 12:48:58;;;;;;;12.65;7.70;;;38.90;36.80;;;;;;5072748;28;20416;-13
2022/06/02 12:51:30;;;;;;;11.37;7.70;;;39.00;36.50;;;;;;5072109;28;20427;-13
2022/06/02 12:54:00;;;;;;;;;;;39.30;36.40;;;;;;5073782;28;20028;-13
2022/06/02 12:56:29;;;;;;;14.80;7.10;;;39.40;36.50;;;;;;5073160;28;19904;-13
2022/06/02 12:59:26;;;;;;;15.55;8.13;;;39.30;36.80;;;;;;5073600;28;20016;-12
2022/06/02 13:02:06;;;;;;;13.57;7.75;;;38.60;36.00;;;;;;5073725;28;20017;-12
2022/06/02 13:04:34;;;;;;;16.02;8.23;;;38.30;38.10;;;;;;5072856;28;20024;-12
2022/06/02 13:07:03;;;;;;;11.55;7.65;;;37.90;38.80;;;;;;5073024;28;20475;-13
2022/06/02 13:10:02;;;;;;;15.52;8.23;;;37.60;39.30;;;;;;5072980;28;20477;-12
2022/06/02 13:12:53;;;;;;;16.73;8.82;;;37.40;39.50;;;;;;5072811;28;20020;-12
2022/06/02 13:15:39;;;;;;;11.52;7.00;;;37.00;39.70;;;;;;5072965;28;20029;-12
2022/06/02 13:18:26;;;;;;;11.00;6.90;;;37.10;40.50;;;;;;5073453;28;20024;-12
2022/06/02 13:21:17;;;;;;;16.08;7.47;;;37.10;40.70;;;;;;5073178;28;20033;-12
2022/06/02 13:24:05;;;;;;;9.57;6.78;;;37.60;39.50;;;;;;5071554;28;20029;-12
2022/06/02 13:26:46;;;;;;;12.48;6.93;;;37.80;38.00;;;;;;5072639;28;20033;-12
2022/06/02 13:29:37;;;;;;;13.82;7.10;;;37.50;39.30;;;;;;5072663;28;20036;-13
2022/06/02 13:32:43;;;;;;;12.75;7.25;;;37.40;38.20;;;;;;5072968;28;20031;-13
2022/06/02 13:35:27;;;;;;;12.90;7.15;;;37.40;38.10;;;;;;5073176;28;20492;-13
2022/06/02 13:38:18;;;;;;;13.68;7.65;;;37.30;38.00;;;;;;5072720;28;20025;-12
2022/06/02 13:41:25;;;;;;;12.77;6.85;;;37.30;38.20;;;;;;5073466;28;20028;-12
2022/06/02 13:44:09;;;;;;;11.45;7.28;;;37.40;38.20;;;;;;5062379;28;20078;-12
2022/06/02 13:47:16;;;;;;;14.82;7.70;;;37.30;38.20;;;;;;5076374;28;20052;-12
2022/06/02 13:50:12;;;;;;;12.15;7.10;;;37.10;38.30;;;;;;5034359;28;20167;-13
2022/06/02 13:52:50;;;;;;;11.43;6.93;;;36.90;38.40;;;;;;5076136;28;20028;-12
2022/06/02 13:58:21;;;;;;;13.60;7.20;;;36.20;38.90;;;;;;5076264;28;20511;-13
2022/06/02 14:01:08;;;;;;;14.77;7.15;;;35.70;39.60;;;;;;5076547;28;20115;-12
2022/06/02 14:04:11;;;;;;;11.57;6.88;;;35.30;40.50;;;;;;5076237;28;20065;-12
2022/06/02 14:07:05;;;;;;;11.48;6.50;;;34.60;41.80;;;;;;5075850;28;20052;-13
2022/06/02 14:09:45;;;;;;;11.82;6.80;;;34.30;42.30;;;;;;5068516;28;20082;-12
2022/06/02 14:12:17;;;;;;;10.85;7.05;;;34.00;42.90;;;;;;5076051;28;20082;-12
2022/06/02 14:15:11;;;;;;;11.32;7.18;;;34.00;43.00;;;;;;5075650;28;20032;-13